createdAt,value
2019-05-20T00:01:06.136Z,2.47
2019-05-20T00:03:34.742Z,5.15
2019-05-20T00:06:06.352Z,4.67
2019-05-20T00:08:34.872Z,4.72
2019-05-20T00:11:03.371Z,6.22
2019-05-20T00:13:31.850Z,4.80
2019-05-20T00:16:00.596Z,2.47
2019-05-20T00:18:29.394Z,4.55
2019-05-20T00:20:59.718Z,5.62
2019-05-20T00:23:33.749Z,3.00
2019-05-20T00:26:02.368Z,3.75
2019-05-20T00:28:31.139Z,3.77
2019-05-20T00:30:59.585Z,6.97
2019-05-20T00:33:28.044Z,2.22
2019-05-20T00:35:56.596Z,3.37
2019-05-20T00:38:25.342Z,3.42
2019-05-20T00:40:54.223Z,4.35
2019-05-20T00:43:26.282Z,3.40
2019-05-20T00:45:55.143Z,4.20
2019-05-20T00:48:23.901Z,3.33
2019-05-20T00:50:52.720Z,3.30
2019-05-20T00:53:21.256Z,3.58
2019-05-20T00:55:51.618Z,1.85
2019-05-20T00:58:20.421Z,2.15
2019-05-20T01:00:48.933Z,2.47
2019-05-20T01:03:17.401Z,2.83
2019-05-20T01:05:46.194Z,2.92
2019-05-20T01:08:15.433Z,3.85
2019-05-20T01:10:45.374Z,4.15
2019-05-20T01:13:14.159Z,5.10
2019-05-20T01:15:42.641Z,4.90
2019-05-20T01:18:11.168Z,2.85
2019-05-20T01:20:39.907Z,5.72
2019-05-20T01:23:08.397Z,3.58
2019-05-20T01:25:37.173Z,3.62
2019-05-20T01:28:07.058Z,2.72
2019-05-20T01:30:35.541Z,6.22
2019-05-20T01:33:13.943Z,3.40
2019-05-20T01:35:37.471Z,3.92
2019-05-20T01:38:06.363Z,3.17
2019-05-20T01:40:35.265Z,5.20
2019-05-20T01:43:03.833Z,2.87
2019-05-20T01:45:32.722Z,2.37
2019-05-20T01:48:01.171Z,3.08
2019-05-20T01:50:31.523Z,3.40
2019-05-20T01:53:00.410Z,2.37
2019-05-20T01:55:28.861Z,2.40
2019-05-20T01:57:57.665Z,2.47
2019-05-20T02:00:28.022Z,1.98
2019-05-20T02:02:58.342Z,3.62
2019-05-20T02:05:26.870Z,2.15
2019-05-20T02:07:55.675Z,3.87
2019-05-20T02:10:24.214Z,2.98
2019-05-20T02:12:52.658Z,2.90
2019-05-20T02:15:31.910Z,2.87
2019-05-20T02:18:00.432Z,1.72
2019-05-20T02:20:31.472Z,2.62
2019-05-20T02:23:18.531Z,3.60
2019-05-20T02:25:48.824Z,3.20
2019-05-20T02:28:17.352Z,2.90
2019-05-20T02:30:46.263Z,1.32
2019-05-20T02:33:14.793Z,4.97
2019-05-20T02:35:43.307Z,2.42
2019-05-20T02:38:13.792Z,3.37
2019-05-20T02:40:42.321Z,3.02
2019-05-20T02:43:10.832Z,3.08
2019-05-20T02:45:39.659Z,4.65
2019-05-20T02:48:09.123Z,3.08
2019-05-20T02:50:37.656Z,3.27
2019-05-20T02:53:07.917Z,3.30
2019-05-20T02:55:36.745Z,3.00
2019-05-20T02:58:05.367Z,4.80
2019-05-20T03:00:33.922Z,2.83
2019-05-20T03:03:04.766Z,2.50
2019-05-20T03:05:33.530Z,3.25
2019-05-20T03:08:02.091Z,3.05
2019-05-20T03:10:31.026Z,3.55
2019-05-20T03:12:59.553Z,2.92
2019-05-20T03:15:31.276Z,3.92
2019-05-20T03:17:59.812Z,2.15
2019-05-20T03:20:28.324Z,1.98
2019-05-20T03:22:56.923Z,1.82
2019-05-20T03:25:25.396Z,2.85
2019-05-20T03:27:53.919Z,3.77
2019-05-20T03:30:22.759Z,1.30
2019-05-20T03:32:51.497Z,1.85
2019-05-20T03:35:20.332Z,2.42
2019-05-20T03:37:48.864Z,1.32
2019-05-20T03:40:18.834Z,1.95
2019-05-20T03:42:48.205Z,1.72
2019-05-20T03:45:17.477Z,1.67
2019-05-20T03:47:46.313Z,1.40
2019-05-20T03:50:15.207Z,2.12
2019-05-20T03:52:43.763Z,1.75
2019-05-20T03:55:12.447Z,2.65
2019-05-20T03:57:40.969Z,3.70
2019-05-20T04:00:10.189Z,1.80
2019-05-20T04:02:39.110Z,2.98
2019-05-20T04:05:08.024Z,2.10
2019-05-20T04:07:36.562Z,2.12
2019-05-20T04:10:06.972Z,1.60
2019-05-20T04:12:35.511Z,3.17
2019-05-20T04:15:05.421Z,2.50
2019-05-20T04:17:35.045Z,3.00
2019-05-20T04:20:04.769Z,3.67
2019-05-20T04:22:33.311Z,1.85
2019-05-20T04:25:03.134Z,3.50
2019-05-20T04:27:31.698Z,2.83
2019-05-20T04:30:01.725Z,3.50
2019-05-20T04:32:31.251Z,2.05
2019-05-20T04:35:19.904Z,2.67
2019-05-20T04:37:31.332Z,4.67
2019-05-20T04:40:00.128Z,2.62
2019-05-20T04:42:30.482Z,1.75
2019-05-20T04:44:59.035Z,6.00
2019-05-20T04:47:30.008Z,3.25
2019-05-20T04:49:58.895Z,2.87
2019-05-20T04:52:27.457Z,2.47
2019-05-20T04:54:57.790Z,3.20
2019-05-20T04:57:26.516Z,2.33
2019-05-20T04:59:55.002Z,3.98
2019-05-20T05:02:24.672Z,3.83
2019-05-20T05:04:54.780Z,2.20
2019-05-20T05:07:23.419Z,1.90
2019-05-20T05:09:51.927Z,1.30
2019-05-20T05:12:20.724Z,1.60
2019-05-20T05:14:49.533Z,3.08
2019-05-20T05:17:18.333Z,2.65
2019-05-20T05:19:47.184Z,2.50
2019-05-20T05:22:15.757Z,2.62
2019-05-20T05:24:44.334Z,2.62
2019-05-20T05:27:13.163Z,2.30
2019-05-20T05:29:43.255Z,4.17
2019-05-20T05:32:11.764Z,2.65
2019-05-20T05:34:40.225Z,2.70
2019-05-20T05:37:09.243Z,1.65
2019-05-20T05:39:37.947Z,1.65
2019-05-20T05:42:06.865Z,3.17
2019-05-20T05:44:35.472Z,1.32
2019-05-20T05:47:04.275Z,1.65
2019-05-20T05:49:35.630Z,2.65
2019-05-20T05:52:05.820Z,1.55
2019-05-20T05:54:34.269Z,3.42
2019-05-20T05:57:02.742Z,1.50
2019-05-20T05:59:31.307Z,1.80
2019-05-20T06:02:00.017Z,2.90
2019-05-20T06:04:28.469Z,1.55
2019-05-20T06:06:57.339Z,2.55
2019-05-20T06:09:27.452Z,2.52
2019-05-20T06:11:55.977Z,3.02
2019-05-20T06:14:24.828Z,2.33
2019-05-20T06:16:54.221Z,1.90
2019-05-20T06:19:23.021Z,1.80
2019-05-20T06:21:53.501Z,1.80
2019-05-20T06:24:22.031Z,1.12
2019-05-20T06:26:51.478Z,2.55
2019-05-20T06:29:19.966Z,2.40
2019-05-20T06:31:48.448Z,4.83
2019-05-20T06:34:16.965Z,1.37
2019-05-20T06:36:48.521Z,2.85
2019-05-20T06:39:17.218Z,3.95
2019-05-20T06:41:46.082Z,0.93
2019-05-20T06:44:14.822Z,2.55
2019-05-20T06:46:43.335Z,2.62
2019-05-20T06:49:12.131Z,3.22
2019-05-20T06:51:40.924Z,2.52
2019-05-20T06:54:09.818Z,3.50
2019-05-20T06:56:44.778Z,3.33
2019-05-20T06:59:13.424Z,2.50
2019-05-20T07:01:41.862Z,1.62
2019-05-20T07:04:11.203Z,2.15
2019-05-20T07:06:46.850Z,2.20
2019-05-20T07:09:10.352Z,2.10
2019-05-20T07:11:39.220Z,3.65
2019-05-20T07:14:09.646Z,2.37
2019-05-20T07:16:38.124Z,1.07
2019-05-20T07:19:06.763Z,2.02
2019-05-20T07:21:35.388Z,3.75
2019-05-20T07:24:06.273Z,1.57
2019-05-20T07:26:35.142Z,2.30
2019-05-20T07:29:05.577Z,2.98
2019-05-20T07:31:34.866Z,3.52
2019-05-20T07:34:04.330Z,2.65
2019-05-20T07:36:35.863Z,2.83
2019-05-20T07:39:07.146Z,2.15
2019-05-20T07:41:35.915Z,1.75
2019-05-20T07:44:04.634Z,3.83
2019-05-20T07:46:34.303Z,2.30
2019-05-20T07:49:03.218Z,1.87
2019-05-20T07:51:32.693Z,2.30
2019-05-20T07:54:02.581Z,1.47
2019-05-20T07:56:34.236Z,2.85
2019-05-20T07:59:07.114Z,1.77
2019-05-20T08:01:35.383Z,1.47
2019-05-20T08:04:06.429Z,2.77
2019-05-20T08:06:35.289Z,3.35
2019-05-20T08:09:05.393Z,2.47
2019-05-20T08:11:33.979Z,1.25
2019-05-20T08:14:02.885Z,2.72
2019-05-20T08:16:34.230Z,3.45
2019-05-20T08:19:03.233Z,1.90
2019-05-20T08:21:32.623Z,1.87
2019-05-20T08:24:02.590Z,2.00
2019-05-20T08:26:31.464Z,1.65
2019-05-20T08:29:00.298Z,2.02
2019-05-20T08:31:28.775Z,2.20
2019-05-20T08:33:57.443Z,2.62
2019-05-20T08:36:27.509Z,3.83
2019-05-20T08:38:56.060Z,2.10
2019-05-20T08:41:26.420Z,2.12
2019-05-20T08:43:55.592Z,1.82
2019-05-20T08:46:27.211Z,3.92
2019-05-20T08:48:56.004Z,2.67
2019-05-20T08:51:24.547Z,3.05
2019-05-20T08:53:53.134Z,3.70
2019-05-20T08:56:21.880Z,2.85
2019-05-20T08:58:52.601Z,2.72
2019-05-20T09:01:21.319Z,2.02
2019-05-20T09:03:50.049Z,2.10
2019-05-20T09:06:20.752Z,3.05
2019-05-20T09:08:49.089Z,3.50
2019-05-20T09:11:17.639Z,2.77
2019-05-20T09:13:46.546Z,2.10
2019-05-20T09:16:16.803Z,2.62
2019-05-20T09:18:45.427Z,2.25
2019-05-20T09:21:14.310Z,2.05
2019-05-20T09:23:43.155Z,3.52
2019-05-20T09:26:11.766Z,2.83
2019-05-20T09:28:41.997Z,2.85
2019-05-20T09:31:11.523Z,1.67
2019-05-20T09:33:40.436Z,1.52
2019-05-20T09:36:09.228Z,2.72
2019-05-20T09:38:39.315Z,1.70
2019-05-20T09:41:07.861Z,2.08
2019-05-20T09:43:36.706Z,1.02
2019-05-20T09:46:08.401Z,1.72
2019-05-20T09:48:36.823Z,2.08
2019-05-20T09:51:07.026Z,2.33
2019-05-20T09:53:35.536Z,2.10
2019-05-20T09:56:04.155Z,3.37
2019-05-20T09:58:33.388Z,1.92
2019-05-20T10:01:02.180Z,1.95
2019-05-20T10:03:30.999Z,2.45
2019-05-20T10:05:59.930Z,1.37
2019-05-20T10:08:37.963Z,1.77
2019-05-20T10:11:00.104Z,4.00
2019-05-20T10:13:29.433Z,2.60
2019-05-20T10:15:58.030Z,1.82
2019-05-20T10:18:36.820Z,2.17
2019-05-20T10:20:57.019Z,1.75
2019-05-20T10:23:25.599Z,1.05
2019-05-20T10:25:54.954Z,1.10
2019-05-20T10:28:26.133Z,1.87
2019-05-20T10:30:56.397Z,0.88
2019-05-20T10:33:24.930Z,2.45
2019-05-20T10:35:53.709Z,1.22
2019-05-20T10:38:22.522Z,1.25
2019-05-20T10:40:50.981Z,1.05
2019-05-20T10:43:19.531Z,1.25
2019-05-20T10:45:48.083Z,16.02
2019-05-20T10:48:17.033Z,17.77
2019-05-20T10:50:45.868Z,17.82
2019-05-20T10:53:14.753Z,18.50
2019-05-20T10:55:43.297Z,18.50
2019-05-20T10:58:14.589Z,18.60
2019-05-20T11:01:01.153Z,18.35
2019-05-20T11:03:14.410Z,16.75
2019-05-20T11:05:43.574Z,15.85
2019-05-20T11:08:14.145Z,16.62
2019-05-20T11:10:44.221Z,16.02
2019-05-20T11:13:14.434Z,15.90
2019-05-20T11:15:44.405Z,17.40
2019-05-20T11:18:13.254Z,16.37
2019-05-20T11:20:41.783Z,16.45
2019-05-20T11:23:12.225Z,17.40
2019-05-20T11:25:40.694Z,16.12
2019-05-20T11:28:11.816Z,17.55
2019-05-20T11:30:43.195Z,16.65
2019-05-20T11:33:12.955Z,16.15
2019-05-20T11:35:41.843Z,15.68
2019-05-20T11:38:11.967Z,16.85
2019-05-20T11:40:41.606Z,15.40
2019-05-20T11:43:10.399Z,17.17
2019-05-20T11:45:39.884Z,17.17
2019-05-20T11:48:08.404Z,14.23
2019-05-20T11:50:36.962Z,16.52
2019-05-20T11:53:05.798Z,16.73
2019-05-20T11:55:34.288Z,15.58
2019-05-20T11:58:15.078Z,15.38
2019-05-20T12:00:33.364Z,15.32
2019-05-20T12:03:03.499Z,14.13
2019-05-20T12:05:32.538Z,13.32
2019-05-20T12:08:03.406Z,13.75
2019-05-20T12:10:32.381Z,13.53
2019-05-20T12:13:00.887Z,14.10
2019-05-20T12:15:30.363Z,14.10
2019-05-20T12:18:02.286Z,13.05
2019-05-20T12:20:31.067Z,12.25
2019-05-20T12:22:59.889Z,12.35
2019-05-20T12:25:28.411Z,12.73
2019-05-20T12:27:57.225Z,12.53
2019-05-20T12:30:25.802Z,12.53
2019-05-20T12:33:17.083Z,13.25
2019-05-20T12:35:25.219Z,12.40
2019-05-20T12:37:54.273Z,13.32
2019-05-20T12:40:24.262Z,13.38
2019-05-20T12:42:53.019Z,12.98
2019-05-20T12:45:21.566Z,11.50
2019-05-20T12:47:51.855Z,10.82
2019-05-20T12:50:20.910Z,11.68
2019-05-20T12:52:49.405Z,12.53
2019-05-20T12:55:18.150Z,12.53
2019-05-20T12:57:46.658Z,12.53
2019-05-20T13:00:16.888Z,12.50
2019-05-20T13:02:45.768Z,13.22
2019-05-20T13:05:15.346Z,13.10
2019-05-20T13:07:43.905Z,12.82
2019-05-20T13:10:28.941Z,13.90
2019-05-20T13:12:47.269Z,13.62
2019-05-20T13:15:16.323Z,13.25
2019-05-20T13:17:45.544Z,12.93
2019-05-20T13:20:14.791Z,14.00
2019-05-20T13:22:43.626Z,13.78
2019-05-20T13:25:15.185Z,13.78
2019-05-20T13:27:44.182Z,14.15
2019-05-20T13:30:14.531Z,14.30
2019-05-20T13:32:46.256Z,12.68
2019-05-20T13:35:17.918Z,13.75
2019-05-20T13:37:46.381Z,14.18
2019-05-20T13:40:17.137Z,12.23
2019-05-20T13:42:48.770Z,12.70
2019-05-20T13:45:19.029Z,11.97
2019-05-20T13:47:47.611Z,12.45
2019-05-20T13:50:16.349Z,12.03
2019-05-20T13:52:46.147Z,13.03
2019-05-20T13:55:15.254Z,13.58
2019-05-20T13:57:44.056Z,13.72
2019-05-20T14:00:14.397Z,14.00
2019-05-20T14:02:43.152Z,12.03
2019-05-20T14:05:12.696Z,12.53
2019-05-20T14:07:41.162Z,11.78
2019-05-20T14:10:09.947Z,12.15
2019-05-20T14:12:38.856Z,12.03
2019-05-20T14:15:07.829Z,12.78
2019-05-20T14:17:36.723Z,13.13
2019-05-20T14:20:06.494Z,14.25
2019-05-20T14:22:36.844Z,13.45
2019-05-20T14:25:06.878Z,12.98
2019-05-20T14:27:35.531Z,13.90
2019-05-20T14:30:06.620Z,13.72
2019-05-20T14:32:35.712Z,13.10
2019-05-20T14:35:07.746Z,14.78
2019-05-20T14:37:36.208Z,14.75
2019-05-20T14:40:06.471Z,14.35
2019-05-20T14:42:34.950Z,14.68
2019-05-20T14:45:08.181Z,13.83
2019-05-20T14:47:37.016Z,12.95
2019-05-20T14:50:11.211Z,13.48
2019-05-20T14:52:39.934Z,14.93
2019-05-20T14:55:09.103Z,17.00
2019-05-20T14:57:37.626Z,18.73
2019-05-20T15:00:08.407Z,19.27
2019-05-20T15:02:36.975Z,19.80
2019-05-20T15:05:09.049Z,20.95
2019-05-20T15:07:44.761Z,21.30
2019-05-20T15:10:15.083Z,21.25
2019-05-20T15:12:43.957Z,23.02
2019-05-20T15:15:14.587Z,22.80
2019-05-20T15:17:43.574Z,24.18
2019-05-20T15:20:12.563Z,24.57
2019-05-20T15:22:41.817Z,23.52
2019-05-20T15:25:11.246Z,25.65
2019-05-20T15:27:40.079Z,25.40
2019-05-20T15:30:09.289Z,25.85
2019-05-20T15:32:38.223Z,24.67
2019-05-20T15:35:09.090Z,23.92
2019-05-20T15:37:37.947Z,22.80
2019-05-20T15:40:07.148Z,21.73
2019-05-20T15:42:35.957Z,21.82
2019-05-20T15:45:06.661Z,23.83
2019-05-20T15:47:35.466Z,20.92
2019-05-20T15:50:08.198Z,21.23
2019-05-20T15:52:35.901Z,22.22
2019-05-20T15:55:06.478Z,23.00
2019-05-20T15:57:36.654Z,20.95
2019-05-20T16:00:09.182Z,20.20
2019-05-20T16:02:38.307Z,21.33
2019-05-20T16:05:07.812Z,22.22
2019-05-20T16:07:36.695Z,22.48
2019-05-20T16:10:05.948Z,23.00
2019-05-20T16:12:36.954Z,24.50
2019-05-20T16:15:09.950Z,21.15
2019-05-20T16:17:38.567Z,20.20
2019-05-20T16:20:08.624Z,20.37
2019-05-20T16:22:37.964Z,20.80
2019-05-20T16:25:08.329Z,22.10
2019-05-20T16:27:36.960Z,23.22
2019-05-20T16:30:07.924Z,22.62
2019-05-20T16:32:38.419Z,23.60
2019-05-20T16:35:09.464Z,23.90
2019-05-20T16:37:38.358Z,21.07
2019-05-20T16:40:13.267Z,22.98
2019-05-20T16:42:42.179Z,23.50
2019-05-20T16:45:13.589Z,22.40
2019-05-20T16:47:42.451Z,22.90
2019-05-20T16:50:11.503Z,22.52
2019-05-20T16:52:41.783Z,21.68
2019-05-20T16:55:13.759Z,22.00
2019-05-20T16:57:42.242Z,21.10
2019-05-20T17:00:29.987Z,20.55
2019-05-20T17:02:43.112Z,21.33
2019-05-20T17:05:11.831Z,21.40
2019-05-20T17:07:40.595Z,21.17
2019-05-20T17:10:11.121Z,21.20
2019-05-20T17:12:39.618Z,20.57
2019-05-20T17:15:08.695Z,22.90
2019-05-20T17:17:37.156Z,21.57
2019-05-20T17:20:06.841Z,23.00
2019-05-20T17:22:35.723Z,23.57
2019-05-20T17:25:07.181Z,25.90
2019-05-20T17:27:36.091Z,23.20
2019-05-20T17:30:07.555Z,24.80
2019-05-20T17:32:36.193Z,27.32
2019-05-20T17:35:09.160Z,28.17
2019-05-20T17:37:37.841Z,28.90
2019-05-20T17:40:08.228Z,28.73
2019-05-20T17:42:36.984Z,27.73
2019-05-20T17:45:07.439Z,28.80
2019-05-20T17:47:36.051Z,29.12
2019-05-20T17:50:05.729Z,28.80
2019-05-20T17:52:34.212Z,29.07
2019-05-20T17:55:02.900Z,28.70
2019-05-20T17:57:31.371Z,29.65
2019-05-20T18:00:00.258Z,29.32
2019-05-20T18:02:28.709Z,29.32
2019-05-20T18:04:57.536Z,29.40
2019-05-20T18:07:26.081Z,30.45
2019-05-20T18:09:55.918Z,30.23
2019-05-20T18:12:24.704Z,31.25
2019-05-20T18:14:54.896Z,30.68
2019-05-20T18:17:23.806Z,31.33
2019-05-20T18:19:52.281Z,33.00
2019-05-20T18:22:20.817Z,31.40
2019-05-20T18:24:49.564Z,30.62
2019-05-20T18:27:18.161Z,32.85
2019-05-20T18:29:47.048Z,32.23
2019-05-20T18:32:15.871Z,30.90
2019-05-20T18:34:44.509Z,31.35
2019-05-20T18:37:13.419Z,34.20
2019-05-20T18:39:41.943Z,31.60
2019-05-20T18:42:10.496Z,32.25
2019-05-20T18:44:39.022Z,31.68
2019-05-20T18:47:07.748Z,33.92
2019-05-20T18:49:36.234Z,31.75
2019-05-20T18:52:05.010Z,31.97
2019-05-20T18:54:33.470Z,32.70
2019-05-20T18:57:03.495Z,33.13
2019-05-20T18:59:31.997Z,30.27
2019-05-20T19:02:05.496Z,29.67
2019-05-20T19:04:32.512Z,30.32
2019-05-20T19:07:01.267Z,29.77
2019-05-20T19:09:30.055Z,29.70
2019-05-20T19:11:58.704Z,28.77
2019-05-20T19:14:27.242Z,26.77
2019-05-20T19:16:55.844Z,27.58
2019-05-20T19:19:26.326Z,27.37
2019-05-20T19:21:55.467Z,26.82
2019-05-20T19:24:24.183Z,26.40
2019-05-20T19:26:53.160Z,26.15
2019-05-20T19:29:22.557Z,25.48
2019-05-20T19:32:01.461Z,24.65
2019-05-20T19:34:23.168Z,24.37
2019-05-20T19:36:51.958Z,23.73
2019-05-20T19:39:20.748Z,27.10
2019-05-20T19:41:50.813Z,22.98
2019-05-20T19:44:19.695Z,24.60
2019-05-20T19:46:49.807Z,24.00
2019-05-20T19:49:20.079Z,24.02
2019-05-20T19:51:48.553Z,21.68
2019-05-20T19:54:17.040Z,22.60
2019-05-20T19:56:45.922Z,21.00
2019-05-20T19:59:15.923Z,19.62
2019-05-20T20:01:44.415Z,17.73
2019-05-20T20:04:13.622Z,18.12
2019-05-20T20:06:42.513Z,18.15
2019-05-20T20:09:11.916Z,18.07
2019-05-20T20:11:40.577Z,17.02
2019-05-20T20:14:09.111Z,16.90
2019-05-20T20:16:37.629Z,18.55
2019-05-20T20:19:06.189Z,16.50
2019-05-20T20:21:34.962Z,18.82
2019-05-20T20:24:05.417Z,19.67
2019-05-20T20:26:35.610Z,18.27
2019-05-20T20:29:11.266Z,17.90
2019-05-20T20:31:46.713Z,17.27
2019-05-20T20:34:15.496Z,19.85
2019-05-20T20:36:45.009Z,19.67
2019-05-20T20:39:14.354Z,20.48
2019-05-20T20:41:43.150Z,20.43
2019-05-20T20:44:13.192Z,20.82
2019-05-20T20:46:41.920Z,20.80
2019-05-20T20:49:14.627Z,19.77
2019-05-20T20:51:43.270Z,18.32
2019-05-20T20:54:13.366Z,19.62
2019-05-20T20:56:42.146Z,20.30
2019-05-20T20:59:11.814Z,19.17
2019-05-20T21:01:40.289Z,17.42
2019-05-20T21:04:09.159Z,17.95
2019-05-20T21:06:37.690Z,19.65
2019-05-20T21:09:10.918Z,19.10
2019-05-20T21:11:40.650Z,17.82
2019-05-20T21:14:12.141Z,17.12
2019-05-20T21:16:42.096Z,19.50
2019-05-20T21:19:14.531Z,17.23
2019-05-20T21:21:44.917Z,17.23
2019-05-20T21:24:13.418Z,18.27
2019-05-20T21:26:43.610Z,16.20
2019-05-20T21:29:12.342Z,17.42
2019-05-20T21:31:42.720Z,17.77
2019-05-20T21:34:11.582Z,15.85
2019-05-20T21:36:47.543Z,15.53
2019-05-20T21:39:10.866Z,14.38
2019-05-20T21:41:39.406Z,16.55
2019-05-20T21:44:07.885Z,15.58
2019-05-20T21:46:39.877Z,15.90
2019-05-20T21:49:10.321Z,15.85
2019-05-20T21:51:39.358Z,16.73
2019-05-20T21:54:12.686Z,15.25
2019-05-20T21:56:42.830Z,14.23
2019-05-20T21:59:14.624Z,14.80
2019-05-20T22:01:43.621Z,16.50
2019-05-20T22:04:12.882Z,16.10
2019-05-20T22:06:41.671Z,17.35
2019-05-20T22:09:12.380Z,17.95
2019-05-20T22:11:43.146Z,17.07
2019-05-20T22:14:11.695Z,17.92
2019-05-20T22:16:42.105Z,17.50
2019-05-20T22:19:12.103Z,18.32
2019-05-20T22:21:44.992Z,17.77
2019-05-20T22:24:14.241Z,19.70
2019-05-20T22:26:42.787Z,18.20
2019-05-20T22:29:11.333Z,17.25
2019-05-20T22:31:41.390Z,19.95
2019-05-20T22:34:10.416Z,20.92
2019-05-20T22:36:39.326Z,20.50
2019-05-20T22:39:13.273Z,19.40
2019-05-20T22:41:41.794Z,19.62
2019-05-20T22:44:10.829Z,19.12
2019-05-20T22:46:40.367Z,20.30
2019-05-20T22:49:08.991Z,20.27
2019-05-20T22:51:37.787Z,20.35
2019-05-20T22:54:06.695Z,21.15
2019-05-20T22:56:35.561Z,21.68
2019-05-20T22:59:04.187Z,22.40
2019-05-20T23:01:35.926Z,20.92
2019-05-20T23:04:05.980Z,20.32
2019-05-20T23:06:34.806Z,23.35
2019-05-20T23:09:05.427Z,20.95
2019-05-20T23:11:34.043Z,23.15
2019-05-20T23:14:05.720Z,20.12
2019-05-20T23:16:37.237Z,20.45
2019-05-20T23:19:09.286Z,18.75
2019-05-20T23:21:37.770Z,20.40
2019-05-20T23:24:06.617Z,20.32
2019-05-20T23:26:35.749Z,19.23
2019-05-20T23:29:06.000Z,18.90
2019-05-20T23:31:34.772Z,21.00
2019-05-20T23:34:12.890Z,20.77
2019-05-20T23:36:36.546Z,18.52
2019-05-20T23:39:07.684Z,18.27
2019-05-20T23:41:37.120Z,19.90
2019-05-20T23:44:05.770Z,19.95
2019-05-20T23:46:34.834Z,18.73
2019-05-20T23:49:06.158Z,21.93
2019-05-20T23:51:34.634Z,20.48
2019-05-20T23:54:04.656Z,20.72
2019-05-20T23:56:33.144Z,21.07
2019-05-20T23:59:01.824Z,20.70
